Time;durP1;ratioP1;P1;durP2;ratioP2;P2;SDS_P1;SDS_P2;PMS_P1;PMS_P2;Temp;Humidity;BMP_temperature;BMP_pressure;BME280_temperature;BME280_humidity;BME280_pressure;Samples;Min_cycle;Max_cycle;Signal;HPM_P1;HPM_P2
2023/01/08 00:01:25;;;;;;;13.85;12.63;;;;;;;;;;5022859;28;20383;-80
2023/01/08 00:03:51;;;;;;;13.73;12.43;;;;;;;;;;5020087;28;20409;-79
2023/01/08 00:06:18;;;;;;;14.23;12.88;;;;;;;;;;5023833;28;20474;-78
2023/01/08 00:08:44;;;;;;;13.75;12.35;;;;;;;;;;5019008;28;20399;-79
2023/01/08 00:11:11;;;;;;;13.68;12.48;;;;;;;;;;5011450;28;20866;-79
2023/01/08 00:13:37;;;;;;;13.57;12.38;;;;;;;;;;5020985;28;20411;-79
2023/01/08 00:16:10;;;;;;;14.38;13.05;;;;;;;;;;5023035;28;20391;-79
2023/01/08 00:18:36;;;;;;;14.02;12.73;;;;;;;;;;5021324;28;20441;-78
2023/01/08 00:21:02;;;;;;;13.20;12.10;;;;;;;;;;5021828;28;20390;-80
2023/01/08 00:23:31;;;;;;;13.93;12.73;;;;;;;;;;5022832;28;20419;-79
2023/01/08 00:26:03;;;;;;;11.80;10.80;;;;;;;;;;5012698;28;20433;-78
2023/01/08 00:28:29;;;;;;;12.52;11.50;;;;;;;;;;5012232;28;20419;-79
2023/01/08 00:30:55;;;;;;;12.93;11.82;;;;;;;;;;5014569;28;20450;-79
2023/01/08 00:33:22;;;;;;;12.63;11.43;;;;;;;;;;5020294;28;21019;-79
2023/01/08 00:35:48;;;;;;;12.00;11.00;;;;;;;;;;5008403;28;20467;-79
2023/01/08 00:38:14;;;;;;;12.77;11.57;;;;;;;;;;5010722;28;20524;-80
2023/01/08 00:40:40;;;;;;;12.35;11.35;;;;;;;;;;5011728;28;20413;-79
2023/01/08 00:43:06;;;;;;;11.90;10.90;;;;;;;;;;5012328;28;20455;-79
2023/01/08 00:45:32;;;;;;;11.98;10.90;;;;;;;;;;5010955;28;20874;-80
2023/01/08 00:47:58;;;;;;;11.95;10.95;;;;;;;;;;5015175;28;20403;-80
2023/01/08 00:50:25;;;;;;;11.47;10.57;;;;;;;;;;5011524;28;20385;-79
2023/01/08 00:52:51;;;;;;;11.88;10.77;;;;;;;;;;5010977;28;20424;-78
2023/01/08 00:55:17;;;;;;;12.98;11.70;;;;;;;;;;5010101;28;20843;-79
2023/01/08 00:57:43;;;;;;;12.23;11.23;;;;;;;;;;5020413;28;20400;-79
2023/01/08 01:00:11;;;;;;;12.68;11.48;;;;;;;;;;5019414;28;20388;-80
2023/01/08 01:02:37;;;;;;;12.35;11.23;;;;;;;;;;5015572;28;20512;-79
2023/01/08 01:05:04;;;;;;;12.23;11.30;;;;;;;;;;5015431;28;20391;-80
2023/01/08 01:07:30;;;;;;;12.68;11.65;;;;;;;;;;5011908;28;20389;-78
2023/01/08 01:09:56;;;;;;;13.68;12.40;;;;;;;;;;5011332;28;20440;-79
2023/01/08 01:12:25;;;;;;;13.13;12.02;;;;;;;;;;5010413;28;20491;-78
2023/01/08 01:14:51;;;;;;;12.52;11.43;;;;;;;;;;5011533;28;20389;-80
2023/01/08 01:17:17;;;;;;;11.87;10.87;;;;;;;;;;5011054;28;20441;-80
2023/01/08 01:19:43;;;;;;;12.20;11.10;;;;;;;;;;5010913;28;20392;-79
2023/01/08 01:22:09;;;;;;;12.02;10.95;;;;;;;;;;5013380;28;20395;-79
2023/01/08 01:24:35;;;;;;;12.05;11.05;;;;;;;;;;5013542;28;20407;-79
2023/01/08 01:27:01;;;;;;;11.52;10.63;;;;;;;;;;5013872;28;20472;-80
2023/01/08 01:29:27;;;;;;;12.15;11.05;;;;;;;;;;5013671;28;20475;-79
2023/01/08 01:31:53;;;;;;;11.63;10.52;;;;;;;;;;5012834;28;20863;-79
2023/01/08 01:34:19;;;;;;;12.38;11.18;;;;;;;;;;5016442;28;20389;-79
2023/01/08 01:36:45;;;;;;;11.82;10.80;;;;;;;;;;5012791;28;20392;-79
2023/01/08 01:39:11;;;;;;;11.98;10.98;;;;;;;;;;5014658;28;20421;-80
2023/01/08 01:41:39;;;;;;;11.30;10.40;;;;;;;;;;5013501;28;21083;-79
2023/01/08 01:44:24;;;;;;;11.70;10.60;;;;;;;;;;5014332;28;20392;-78
2023/01/08 01:46:50;;;;;;;11.65;10.60;;;;;;;;;;5012417;28;20444;-79
2023/01/08 01:49:20;;;;;;;11.10;10.10;;;;;;;;;;5013333;28;20420;-79
2023/01/08 01:51:49;;;;;;;11.73;10.73;;;;;;;;;;5011525;28;20443;-79
2023/01/08 01:54:16;;;;;;;12.38;11.30;;;;;;;;;;5028880;28;20908;-79
2023/01/08 01:56:42;;;;;;;13.15;11.95;;;;;;;;;;5051059;28;20392;-79
2023/01/08 01:59:08;;;;;;;13.60;12.30;;;;;;;;;;5051117;28;20468;-79
2023/01/08 02:01:35;;;;;;;12.57;11.48;;;;;;;;;;5023021;28;20867;-79
2023/01/08 02:04:01;;;;;;;13.52;12.15;;;;;;;;;;5042791;28;20382;-79
2023/01/08 02:06:29;;;;;;;13.30;12.10;;;;;;;;;;5044584;28;20375;-79
2023/01/08 02:09:01;;;;;;;13.30;12.10;;;;;;;;;;5051173;28;20472;-79
2023/01/08 02:11:40;;;;;;;12.68;11.48;;;;;;;;;;5033176;28;20587;-79
2023/01/08 02:14:16;;;;;;;12.15;11.23;;;;;;;;;;5054338;28;20457;-79
2023/01/08 02:16:45;;;;;;;12.57;11.57;;;;;;;;;;5054951;28;20365;-79
2023/01/08 02:19:14;;;;;;;12.13;11.13;;;;;;;;;;5054520;28;20456;-79
2023/01/08 02:21:53;;;;;;;12.93;11.82;;;;;;;;;;5054604;28;20422;-79
2023/01/08 02:24:19;;;;;;;13.48;12.27;;;;;;;;;;5029853;28;20809;-79
2023/01/08 02:26:46;;;;;;;14.27;12.88;;;;;;;;;;5054530;28;20388;-79
2023/01/08 02:29:17;;;;;;;13.48;12.25;;;;;;;;;;5054246;28;20446;-79
2023/01/08 02:31:44;;;;;;;13.48;12.38;;;;;;;;;;5054311;28;20889;-79
2023/01/08 02:34:10;;;;;;;13.60;12.45;;;;;;;;;;5036568;28;20386;-79
2023/01/08 02:36:41;;;;;;;14.15;12.80;;;;;;;;;;5054210;28;20503;-79
2023/01/08 02:39:10;;;;;;;14.10;12.90;;;;;;;;;;5054092;28;20428;-79
2023/01/08 02:41:43;;;;;;;15.30;13.88;;;;;;;;;;5042358;28;20411;-79
2023/01/08 02:44:10;;;;;;;16.25;14.18;;;;;;;;;;5034204;28;20383;-79
2023/01/08 02:46:37;;;;;;;14.93;13.52;;;;;;;;;;5053903;28;20388;-79
2023/01/08 02:49:06;;;;;;;13.57;12.27;;;;;;;;;;5053987;28;20392;-79
2023/01/08 02:51:40;;;;;;;15.13;13.73;;;;;;;;;;5053864;28;20421;-79
2023/01/08 02:54:08;;;;;;;16.60;14.90;;;;;;;;;;5053701;28;20385;-79
2023/01/08 02:56:41;;;;;;;15.60;14.20;;;;;;;;;;5053864;28;20489;-79
2023/01/08 02:59:07;;;;;;;15.35;14.05;;;;;;;;;;5047884;28;20397;-79
2023/01/08 03:01:34;;;;;;;15.27;13.90;;;;;;;;;;5034285;28;20393;-79
2023/01/08 03:04:04;;;;;;;15.13;13.73;;;;;;;;;;5053718;28;20933;-79
2023/01/08 03:06:30;;;;;;;15.35;13.95;;;;;;;;;;5048795;28;20478;-79
2023/01/08 03:08:57;;;;;;;16.17;14.77;;;;;;;;;;5045219;28;20386;-79
2023/01/08 03:11:26;;;;;;;15.00;13.70;;;;;;;;;;5037785;28;20486;-79
2023/01/08 03:13:54;;;;;;;15.27;13.98;;;;;;;;;;5047211;28;20394;-80
2023/01/08 03:16:24;;;;;;;14.80;13.45;;;;;;;;;;5042279;28;20379;-79
2023/01/08 03:18:52;;;;;;;14.63;13.32;;;;;;;;;;5052333;28;20389;-79
2023/01/08 03:21:19;;;;;;;14.30;13.00;;;;;;;;;;5053360;28;20418;-79
2023/01/08 03:23:45;;;;;;;14.07;12.77;;;;;;;;;;5053236;28;20385;-79
2023/01/08 03:26:15;;;;;;;15.02;13.60;;;;;;;;;;5053358;28;20866;-79
2023/01/08 03:28:45;;;;;;;13.87;12.70;;;;;;;;;;5045190;28;20408;-79
2023/01/08 03:31:13;;;;;;;14.45;13.25;;;;;;;;;;5034080;28;20465;-79
2023/01/08 03:33:40;;;;;;;15.93;14.32;;;;;;;;;;5032299;28;21007;-79
2023/01/08 03:36:06;;;;;;;16.35;14.88;;;;;;;;;;5030988;28;20419;-79
2023/01/08 03:38:33;;;;;;;16.30;14.73;;;;;;;;;;5052968;28;20422;-79
2023/01/08 03:41:02;;;;;;;14.93;13.63;;;;;;;;;;5052701;28;20413;-79
2023/01/08 03:43:28;;;;;;;15.95;14.43;;;;;;;;;;5052978;28;20408;-79
2023/01/08 03:45:57;;;;;;;15.45;14.15;;;;;;;;;;5052054;28;20382;-79
2023/01/08 03:48:24;;;;;;;17.85;16.15;;;;;;;;;;5052731;28;20389;-79
2023/01/08 03:50:50;;;;;;;17.30;15.67;;;;;;;;;;5052581;28;20462;-79
2023/01/08 03:53:16;;;;;;;17.92;16.23;;;;;;;;;;5052609;28;20543;-79
2023/01/08 03:55:42;;;;;;;17.63;16.02;;;;;;;;;;5052666;28;20382;-79
2023/01/08 03:58:08;;;;;;;17.20;15.60;;;;;;;;;;5052535;28;20454;-79
2023/01/08 04:00:34;;;;;;;16.35;14.85;;;;;;;;;;5046790;28;20864;-79
2023/01/08 04:03:00;;;;;;;16.27;14.88;;;;;;;;;;5032484;28;20391;-79
2023/01/08 04:05:26;;;;;;;16.60;15.00;;;;;;;;;;5052368;28;20384;-79
2023/01/08 04:07:56;;;;;;;17.23;15.55;;;;;;;;;;5015649;28;20383;-79
2023/01/08 04:10:22;;;;;;;15.80;14.40;;;;;;;;;;5046423;28;20472;-79
2023/01/08 04:12:48;;;;;;;17.52;15.93;;;;;;;;;;5044815;28;20398;-79
2023/01/08 04:15:14;;;;;;;16.33;14.82;;;;;;;;;;5042516;28;20382;-79
2023/01/08 04:17:40;;;;;;;16.02;14.60;;;;;;;;;;5046688;28;20526;-79
2023/01/08 04:20:06;;;;;;;16.05;14.65;;;;;;;;;;5034023;28;20382;-79
2023/01/08 04:22:32;;;;;;;16.45;14.85;;;;;;;;;;5052208;28;20381;-79
2023/01/08 04:24:58;;;;;;;16.80;15.27;;;;;;;;;;5052140;28;20377;-79
2023/01/08 04:27:24;;;;;;;16.83;15.18;;;;;;;;;;5052057;28;20878;-79
2023/01/08 04:29:50;;;;;;;17.15;15.20;;;;;;;;;;5046085;28;20491;-79
2023/01/08 04:32:16;;;;;;;18.73;16.65;;;;;;;;;;5047801;28;20397;-79
2023/01/08 04:34:42;;;;;;;20.90;18.58;;;;;;;;;;5049420;28;20373;-79
2023/01/08 04:37:08;;;;;;;18.10;16.30;;;;;;;;;;5031460;28;20437;-79
2023/01/08 04:39:34;;;;;;;18.48;16.50;;;;;;;;;;5022402;28;20396;-78
2023/01/08 04:42:00;;;;;;;18.50;16.33;;;;;;;;;;5022245;28;20446;-79
2023/01/08 04:44:27;;;;;;;18.73;16.73;;;;;;;;;;5032085;28;20872;-79
2023/01/08 04:46:53;;;;;;;17.70;15.90;;;;;;;;;;5030008;28;20385;-79
2023/01/08 04:49:19;;;;;;;21.25;17.92;;;;;;;;;;5029916;28;20832;-78
2023/01/08 04:51:45;;;;;;;25.50;20.50;;;;;;;;;;5029982;28;20912;-79
2023/01/08 04:54:11;;;;;;;24.95;19.50;;;;;;;;;;5029926;28;20481;-78
2023/01/08 04:56:37;;;;;;;17.65;15.95;;;;;;;;;;5012733;28;20468;-79
2023/01/08 04:59:03;;;;;;;17.60;15.80;;;;;;;;;;5030916;28;20857;-78
2023/01/08 05:01:29;;;;;;;18.40;16.60;;;;;;;;;;5031040;28;20382;-80
2023/01/08 05:03:56;;;;;;;19.52;16.65;;;;;;;;;;5025635;28;20407;-79
2023/01/08 05:06:22;;;;;;;17.98;16.17;;;;;;;;;;5015613;28;20387;-79
2023/01/08 05:08:48;;;;;;;19.08;17.17;;;;;;;;;;5011192;28;20380;-79
2023/01/08 05:11:14;;;;;;;19.95;17.15;;;;;;;;;;5013561;28;20486;-79
2023/01/08 05:13:40;;;;;;;22.37;18.60;;;;;;;;;;5022200;28;20402;-78
2023/01/08 05:16:06;;;;;;;20.30;18.17;;;;;;;;;;5018855;28;20381;-78
2023/01/08 05:18:32;;;;;;;19.50;17.17;;;;;;;;;;5016565;28;20395;-79
2023/01/08 05:21:02;;;;;;;21.08;18.27;;;;;;;;;;5018238;28;20385;-79
2023/01/08 05:23:28;;;;;;;19.92;17.73;;;;;;;;;;5010542;28;20396;-79
2023/01/08 05:26:01;;;;;;;19.65;17.55;;;;;;;;;;5012407;28;20412;-79
2023/01/08 05:28:27;;;;;;;19.40;17.27;;;;;;;;;;5015984;28;20408;-78
2023/01/08 05:30:54;;;;;;;21.27;18.33;;;;;;;;;;5019083;28;20379;-78
2023/01/08 05:33:20;;;;;;;22.13;18.25;;;;;;;;;;5031229;28;20403;-78
2023/01/08 05:35:46;;;;;;;23.85;19.23;;;;;;;;;;5051037;28;20389;-78
2023/01/08 05:38:12;;;;;;;22.75;18.88;;;;;;;;;;5051264;28;20373;-78
2023/01/08 05:40:38;;;;;;;22.73;19.05;;;;;;;;;;5050995;28;20401;-78
2023/01/08 05:43:04;;;;;;;25.50;20.00;;;;;;;;;;5054363;28;20782;-78
2023/01/08 05:45:31;;;;;;;22.17;18.77;;;;;;;;;;5055015;28;20385;-78
2023/01/08 05:47:57;;;;;;;25.05;19.50;;;;;;;;;;5024421;28;20388;-78
2023/01/08 05:50:23;;;;;;;20.15;17.65;;;;;;;;;;5014800;28;20388;-80
2023/01/08 05:52:49;;;;;;;19.20;17.20;;;;;;;;;;5017941;28;20407;-78
2023/01/08 05:55:15;;;;;;;17.77;16.08;;;;;;;;;;5024856;28;20396;-78
2023/01/08 05:57:41;;;;;;;18.33;16.42;;;;;;;;;;5015619;28;20376;-78
2023/01/08 06:00:08;;;;;;;18.15;16.27;;;;;;;;;;5014962;28;20407;-78
2023/01/08 06:02:34;;;;;;;16.37;14.67;;;;;;;;;;5014226;28;20399;-78
2023/01/08 06:05:00;;;;;;;17.90;16.13;;;;;;;;;;5018827;28;20388;-78
2023/01/08 06:07:27;;;;;;;21.55;18.02;;;;;;;;;;5025621;28;20392;-79
2023/01/08 06:09:53;;;;;;;26.85;20.35;;;;;;;;;;5019110;28;20389;-79
2023/01/08 06:12:19;;;;;;;26.17;20.75;;;;;;;;;;5013296;28;20434;-79
2023/01/08 06:14:45;;;;;;;25.95;21.00;;;;;;;;;;5017213;28;20377;-79
2023/01/08 06:17:11;;;;;;;23.05;19.30;;;;;;;;;;5031764;28;20406;-79
2023/01/08 06:19:40;;;;;;;21.13;17.90;;;;;;;;;;5042340;28;20399;-79
2023/01/08 06:22:06;;;;;;;18.20;16.33;;;;;;;;;;5033009;28;20883;-80
2023/01/08 06:24:32;;;;;;;20.53;18.33;;;;;;;;;;5048183;28;20396;-79
2023/01/08 06:26:58;;;;;;;22.00;18.55;;;;;;;;;;5035529;28;20421;-79
2023/01/08 06:29:24;;;;;;;22.30;18.08;;;;;;;;;;5047092;28;20379;-79
2023/01/08 06:31:50;;;;;;;18.52;16.52;;;;;;;;;;5053850;28;20763;-79
2023/01/08 06:34:16;;;;;;;20.05;17.90;;;;;;;;;;5051144;28;20382;-79
2023/01/08 06:36:42;;;;;;;21.92;18.23;;;;;;;;;;5018777;28;20971;-82
2023/01/08 06:39:08;;;;;;;21.20;18.13;;;;;;;;;;5030035;28;20422;-82
2023/01/08 06:41:34;;;;;;;21.10;18.13;;;;;;;;;;5021252;28;20402;-82
2023/01/08 06:44:00;;;;;;;21.73;18.83;;;;;;;;;;5023404;28;20387;-82
2023/01/08 06:46:26;;;;;;;18.88;16.85;;;;;;;;;;5009375;28;20381;-82
2023/01/08 06:48:52;;;;;;;19.30;17.20;;;;;;;;;;5032924;28;20864;-82
2023/01/08 06:51:18;;;;;;;21.00;17.80;;;;;;;;;;5043041;28;20427;-83
2023/01/08 06:53:47;;;;;;;20.02;17.88;;;;;;;;;;5052447;28;20823;-81
2023/01/08 06:56:13;;;;;;;21.17;17.90;;;;;;;;;;5049197;28;20808;-80
2023/01/08 06:58:39;;;;;;;20.67;18.20;;;;;;;;;;5035401;28;20429;-83
2023/01/08 07:01:05;;;;;;;22.65;18.48;;;;;;;;;;5033030;28;20371;-84
2023/01/08 07:03:31;;;;;;;20.77;18.57;;;;;;;;;;5032190;28;20470;-82
2023/01/08 07:05:57;;;;;;;21.02;18.42;;;;;;;;;;5016905;28;20474;-82
2023/01/08 07:08:23;;;;;;;20.65;18.45;;;;;;;;;;5017256;28;20387;-80
2023/01/08 07:10:49;;;;;;;22.20;19.67;;;;;;;;;;5033034;28;20457;-80
2023/01/08 07:13:15;;;;;;;23.42;20.02;;;;;;;;;;5032708;28;20411;-81
2023/01/08 07:15:41;;;;;;;21.95;19.65;;;;;;;;;;5033226;28;20421;-81
2023/01/08 07:18:08;;;;;;;35.15;24.13;;;;;;;;;;5017130;28;20873;-81
2023/01/08 07:20:34;;;;;;;246.57;116.20;;;;;;;;;;5032336;28;20403;-81
2023/01/08 07:23:04;;;;;;;24.10;19.35;;;;;;;;;;5034917;28;20390;-81
2023/01/08 07:25:30;;;;;;;121.22;61.42;;;;;;;;;;5036165;28;20390;-80
2023/01/08 07:27:56;;;;;;;22.33;19.63;;;;;;;;;;5035854;28;20533;-80
2023/01/08 07:30:22;;;;;;;51.33;32.20;;;;;;;;;;5034716;28;20430;-80
2023/01/08 07:32:48;;;;;;;34.80;25.55;;;;;;;;;;5032865;28;20402;-80
2023/01/08 07:35:14;;;;;;;23.70;20.50;;;;;;;;;;5030952;28;20749;-82
2023/01/08 07:37:41;;;;;;;21.65;18.90;;;;;;;;;;5022452;28;20493;-81
2023/01/08 07:40:08;;;;;;;21.75;19.05;;;;;;;;;;5031878;28;20414;-80
2023/01/08 07:42:34;;;;;;;24.45;20.33;;;;;;;;;;5032165;28;20401;-81
2023/01/08 07:45:00;;;;;;;21.88;19.33;;;;;;;;;;5032255;28;20406;-81
2023/01/08 07:47:26;;;;;;;24.02;21.30;;;;;;;;;;5032304;28;20395;-81
2023/01/08 07:49:52;;;;;;;21.75;19.40;;;;;;;;;;5029563;28;20473;-81
2023/01/08 07:52:18;;;;;;;28.75;25.55;;;;;;;;;;5032223;28;20403;-81
2023/01/08 07:54:44;;;;;;;29.00;25.23;;;;;;;;;;5015997;28;20889;-82
2023/01/08 07:57:10;;;;;;;22.35;19.92;;;;;;;;;;5032136;28;20395;-81
2023/01/08 07:59:36;;;;;;;23.50;20.95;;;;;;;;;;5031945;28;20379;-80
2023/01/08 08:02:02;;;;;;;25.40;21.48;;;;;;;;;;5031946;28;20387;-81
2023/01/08 08:04:28;;;;;;;34.25;27.30;;;;;;;;;;5031677;28;20886;-80
2023/01/08 08:06:54;;;;;;;22.10;19.60;;;;;;;;;;5047333;28;20391;-82
2023/01/08 08:09:20;;;;;;;22.52;19.88;;;;;;;;;;5021898;28;20750;-83
2023/01/08 08:11:46;;;;;;;24.77;20.67;;;;;;;;;;5032371;28;20383;-83
2023/01/08 08:14:12;;;;;;;24.58;21.65;;;;;;;;;;5036441;28;20390;-83
2023/01/08 08:16:38;;;;;;;25.65;21.35;;;;;;;;;;5052136;28;20724;-84
2023/01/08 08:19:04;;;;;;;25.00;21.98;;;;;;;;;;5029525;28;20422;-83
2023/01/08 08:21:30;;;;;;;23.83;21.27;;;;;;;;;;5033129;28;20941;-84
2023/01/08 08:23:57;;;;;;;25.37;21.77;;;;;;;;;;5030965;28;20387;-84
2023/01/08 08:26:23;;;;;;;27.45;22.75;;;;;;;;;;5020343;28;20465;-82
2023/01/08 08:28:49;;;;;;;28.08;23.20;;;;;;;;;;5030537;28;20447;-83
2023/01/08 08:31:15;;;;;;;26.20;22.67;;;;;;;;;;5049167;28;20378;-81
2023/01/08 08:33:41;;;;;;;25.10;21.92;;;;;;;;;;5047855;28;20436;-82
2023/01/08 08:36:07;;;;;;;25.08;21.67;;;;;;;;;;5037013;28;20883;-82
2023/01/08 08:38:33;;;;;;;24.20;21.30;;;;;;;;;;5012409;28;20393;-83
2023/01/08 08:41:00;;;;;;;26.48;21.73;;;;;;;;;;5010443;28;20409;-83
2023/01/08 08:43:26;;;;;;;24.88;21.75;;;;;;;;;;5011464;28;20475;-83
2023/01/08 08:45:54;;;;;;;25.25;22.05;;;;;;;;;;5013147;28;20427;-83
2023/01/08 08:48:20;;;;;;;25.40;22.33;;;;;;;;;;5035420;28;20446;-82
2023/01/08 08:50:46;;;;;;;25.75;22.55;;;;;;;;;;5034498;28;20389;-82
2023/01/08 08:53:12;;;;;;;25.38;21.83;;;;;;;;;;5010317;28;20919;-85
2023/01/08 08:55:38;;;;;;;24.90;22.20;;;;;;;;;;5010279;28;20395;-85
2023/01/08 08:58:05;;;;;;;29.45;24.17;;;;;;;;;;5014888;28;20379;-83
2023/01/08 09:00:32;;;;;;;27.48;23.77;;;;;;;;;;5021435;28;20474;-82
2023/01/08 09:02:58;;;;;;;24.83;22.17;;;;;;;;;;5031741;28;20405;-83
2023/01/08 09:05:24;;;;;;;23.55;21.05;;;;;;;;;;5046192;28;20475;-82
2023/01/08 09:07:50;;;;;;;25.98;22.88;;;;;;;;;;5027088;28;20379;-82
2023/01/08 09:10:16;;;;;;;26.27;22.90;;;;;;;;;;5031712;28;20418;-83
2023/01/08 09:12:42;;;;;;;25.67;22.88;;;;;;;;;;5036812;28;20414;-83
2023/01/08 09:15:08;;;;;;;26.77;23.88;;;;;;;;;;5027450;28;20388;-83
2023/01/08 09:17:35;;;;;;;29.43;24.97;;;;;;;;;;5053711;28;20514;-83
2023/01/08 09:20:01;;;;;;;30.77;24.73;;;;;;;;;;5053750;28;20880;-83
2023/01/08 09:22:27;;;;;;;25.03;22.33;;;;;;;;;;5016766;28;20485;-83
2023/01/08 09:24:54;;;;;;;25.95;22.55;;;;;;;;;;5026895;28;20868;-84
2023/01/08 09:27:20;;;;;;;25.05;21.75;;;;;;;;;;5053130;28;20512;-84
2023/01/08 09:29:46;;;;;;;26.58;23.20;;;;;;;;;;5019862;28;20403;-82
2023/01/08 09:32:12;;;;;;;28.65;24.08;;;;;;;;;;5028108;28;20492;-82
2023/01/08 09:34:38;;;;;;;25.83;22.00;;;;;;;;;;5036442;28;20739;-84
2023/01/08 09:37:04;;;;;;;24.80;22.17;;;;;;;;;;5043576;28;20404;-84
2023/01/08 09:39:30;;;;;;;24.42;21.30;;;;;;;;;;5033912;28;20389;-85
2023/01/08 09:41:57;;;;;;;24.70;21.13;;;;;;;;;;5028904;28;20398;-84
2023/01/08 09:44:30;;;;;;;24.67;22.05;;;;;;;;;;5025737;28;20883;-86
2023/01/08 09:46:57;;;;;;;25.00;22.35;;;;;;;;;;5045850;28;20454;-84
2023/01/08 09:49:30;;;;;;;26.05;23.23;;;;;;;;;;5031951;28;20390;-84
2023/01/08 09:51:56;;;;;;;26.90;24.00;;;;;;;;;;5054963;28;20426;-85
2023/01/08 09:54:24;;;;;;;27.50;23.65;;;;;;;;;;5055040;28;20919;-82
2023/01/08 09:56:50;;;;;;;25.15;22.42;;;;;;;;;;5042642;28;20420;-82
2023/01/08 09:59:17;;;;;;;27.25;24.30;;;;;;;;;;5031668;28;20478;-83
2023/01/08 10:01:44;;;;;;;27.17;24.27;;;;;;;;;;5026973;28;20433;-82
2023/01/08 10:04:15;;;;;;;25.40;22.70;;;;;;;;;;5017958;28;20411;-82
2023/01/08 10:06:46;;;;;;;27.02;23.63;;;;;;;;;;5015349;28;20418;-82
2023/01/08 10:09:14;;;;;;;25.80;23.00;;;;;;;;;;5013908;28;20440;-82
2023/01/08 10:11:42;;;;;;;27.23;24.23;;;;;;;;;;5021964;28;20475;-82
2023/01/08 10:14:21;;;;;;;29.38;24.83;;;;;;;;;;5028239;28;20428;-83
2023/01/08 10:16:48;;;;;;;26.90;24.00;;;;;;;;;;5029673;28;20933;-82
2023/01/08 10:19:14;;;;;;;27.85;23.85;;;;;;;;;;5028882;28;20409;-82
2023/01/08 10:21:41;;;;;;;25.27;22.58;;;;;;;;;;5030135;28;20401;-85
2023/01/08 10:24:07;;;;;;;38.03;32.10;;;;;;;;;;5033878;28;20956;-84
2023/01/08 10:26:38;;;;;;;30.17;26.80;;;;;;;;;;5027744;28;20389;-84
2023/01/08 10:29:13;;;;;;;29.33;23.95;;;;;;;;;;5032068;28;20424;-85
2023/01/08 10:31:47;;;;;;;30.85;26.27;;;;;;;;;;5033177;28;20818;-84
2023/01/08 10:34:20;;;;;;;30.40;25.25;;;;;;;;;;5051201;28;25099;-84
2023/01/08 10:36:46;;;;;;;30.75;25.88;;;;;;;;;;5046441;28;20426;-84
2023/01/08 10:39:23;;;;;;;29.50;26.40;;;;;;;;;;5036417;28;20480;-84
2023/01/08 10:41:52;;;;;;;26.55;23.65;;;;;;;;;;5053803;28;25086;-83
2023/01/08 10:44:19;;;;;;;28.70;24.13;;;;;;;;;;5054161;28;20446;-84
2023/01/08 10:46:48;;;;;;;28.65;25.40;;;;;;;;;;5047053;28;20411;-84
2023/01/08 10:49:22;;;;;;;29.33;25.83;;;;;;;;;;5034104;28;20399;-84
2023/01/08 10:51:49;;;;;;;33.20;24.73;;;;;;;;;;5033000;28;20422;-85
2023/01/08 10:54:25;;;;;;;30.75;24.77;;;;;;;;;;5053956;28;20376;-84
2023/01/08 10:56:51;;;;;;;29.35;25.10;;;;;;;;;;5045724;28;20433;-84
2023/01/08 10:59:18;;;;;;;31.57;25.97;;;;;;;;;;5029631;28;20477;-84
2023/01/08 11:01:46;;;;;;;30.70;24.42;;;;;;;;;;5038653;28;20738;-84
2023/01/08 11:04:21;;;;;;;27.55;24.40;;;;;;;;;;5022319;28;20429;-84
2023/01/08 11:06:47;;;;;;;25.90;23.15;;;;;;;;;;5016388;28;20905;-86
2023/01/08 11:09:22;;;;;;;25.58;22.88;;;;;;;;;;5026917;28;20405;-84
2023/01/08 11:11:48;;;;;;;50.80;39.35;;;;;;;;;;5016431;28;20384;-86
2023/01/08 11:14:26;;;;;;;26.92;24.17;;;;;;;;;;5023646;28;20386;-86
2023/01/08 11:16:52;;;;;;;25.95;23.35;;;;;;;;;;5022027;28;20387;-86
2023/01/08 11:19:31;;;;;;;25.90;23.15;;;;;;;;;;5025150;28;20444;-90
2023/01/08 11:22:01;;;;;;;25.08;22.48;;;;;;;;;;5026326;28;20427;-86
2023/01/08 11:24:31;;;;;;;26.80;24.00;;;;;;;;;;5028835;28;20428;-88
2023/01/08 11:27:00;;;;;;;27.38;24.48;;;;;;;;;;5019561;28;20384;-88
2023/01/08 11:29:45;;;;;;;23.95;21.45;;;;;;;;;;5020923;28;20959;-87
2023/01/08 11:32:24;;;;;;;24.65;22.13;;;;;;;;;;5019166;28;20425;-86
2023/01/08 11:35:00;;;;;;;22.67;20.38;;;;;;;;;;5018165;28;20439;-86
2023/01/08 11:37:27;;;;;;;23.73;21.35;;;;;;;;;;5027903;28;20389;-87
2023/01/08 11:39:54;;;;;;;23.52;21.15;;;;;;;;;;5022736;28;20400;-88
2023/01/08 11:42:29;;;;;;;23.48;21.13;;;;;;;;;;5004855;28;20387;-86
2023/01/08 11:44:58;;;;;;;22.20;19.95;;;;;;;;;;5017953;28;20400;-87
2023/01/08 11:47:37;;;;;;;23.38;21.08;;;;;;;;;;5047439;28;20462;-87
2023/01/08 11:50:21;;;;;;;23.55;21.02;;;;;;;;;;5054240;28;20396;-87
2023/01/08 11:53:13;;;;;;;23.08;20.77;;;;;;;;;;5041309;28;20980;-88
2023/01/08 11:55:48;;;;;;;22.25;20.15;;;;;;;;;;5057545;28;20382;-82
2023/01/08 11:58:22;;;;;;;22.05;19.95;;;;;;;;;;5057074;28;20403;-82
2023/01/08 12:01:03;;;;;;;22.75;20.45;;;;;;;;;;5051784;28;20375;-80
2023/01/08 12:03:46;;;;;;;23.63;21.23;;;;;;;;;;5041373;28;20383;-82
2023/01/08 12:06:27;;;;;;;25.02;22.08;;;;;;;;;;5052556;28;20381;-82
2023/01/08 12:09:13;;;;;;;22.35;20.05;;;;;;;;;;5034881;28;20838;-82
2023/01/08 12:11:52;;;;;;;19.90;18.00;;;;;;;;;;5031946;28;20411;-82
2023/01/08 12:14:30;;;;;;;21.52;19.52;;;;;;;;;;5026001;28;20404;-82
2023/01/08 12:17:03;;;;;;;21.85;19.70;;;;;;;;;;5021646;28;20388;-82
2023/01/08 12:19:29;;;;;;;23.48;21.08;;;;;;;;;;5015433;28;20784;-82
2023/01/08 12:21:55;;;;;;;24.08;21.48;;;;;;;;;;5021293;28;20387;-82
2023/01/08 12:24:39;;;;;;;23.40;20.90;;;;;;;;;;5037875;28;20387;-81
2023/01/08 12:27:12;;;;;;;25.35;22.08;;;;;;;;;;5051932;28;20374;-82
2023/01/08 12:29:57;;;;;;;25.17;22.48;;;;;;;;;;5052095;28;20438;-81
2023/01/08 12:32:25;;;;;;;24.15;21.55;;;;;;;;;;5049371;28;20397;-82
2023/01/08 12:34:55;;;;;;;26.67;23.77;;;;;;;;;;5043578;28;20408;-80
2023/01/08 12:37:26;;;;;;;20.13;18.20;;;;;;;;;;5044162;28;20870;-81
2023/01/08 12:39:56;;;;;;;21.10;18.95;;;;;;;;;;5048987;28;20393;-81
2023/01/08 12:42:27;;;;;;;21.52;19.40;;;;;;;;;;5047120;28;20487;-80
2023/01/08 12:44:54;;;;;;;25.77;23.08;;;;;;;;;;5031197;28;20387;-80
2023/01/08 12:47:24;;;;;;;25.08;22.17;;;;;;;;;;5037510;28;20387;-83
2023/01/08 12:50:01;;;;;;;22.02;19.73;;;;;;;;;;5051815;28;20381;-82
2023/01/08 12:52:28;;;;;;;19.98;18.02;;;;;;;;;;5050565;28;20413;-82
2023/01/08 12:55:04;;;;;;;21.80;19.50;;;;;;;;;;5038069;28;20379;-79
2023/01/08 12:57:43;;;;;;;21.08;18.88;;;;;;;;;;5051733;28;20512;-79
2023/01/08 13:00:18;;;;;;;20.27;18.33;;;;;;;;;;5049367;28;20369;-79
2023/01/08 13:02:57;;;;;;;14.98;13.68;;;;;;;;;;5030990;28;20389;-81
2023/01/08 13:05:23;;;;;;;12.80;11.80;;;;;;;;;;5029370;28;20445;-78
2023/01/08 13:07:51;;;;;;;14.35;12.95;;;;;;;;;;5029396;28;20390;-80
2023/01/08 13:10:20;;;;;;;12.80;11.70;;;;;;;;;;5028587;28;20497;-81
2023/01/08 13:12:50;;;;;;;10.60;9.70;;;;;;;;;;5030182;28;20411;-81
2023/01/08 13:15:24;;;;;;;11.60;10.65;;;;;;;;;;5031497;28;20371;-81
2023/01/08 13:17:51;;;;;;;12.48;11.48;;;;;;;;;;5053220;28;20373;-81
2023/01/08 13:20:28;;;;;;;11.57;10.57;;;;;;;;;;5051413;28;20378;-79
2023/01/08 13:22:55;;;;;;;17.05;15.35;;;;;;;;;;5031594;28;20457;-80
2023/01/08 13:25:21;;;;;;;24.67;22.07;;;;;;;;;;5030783;28;20505;-79
2023/01/08 13:27:47;;;;;;;27.27;23.50;;;;;;;;;;5031322;28;20390;-81
2023/01/08 13:30:49;;;;;;;24.97;22.27;;;;;;;;;;5028959;28;20435;-80
2023/01/08 13:33:38;;;;;;;21.88;19.60;;;;;;;;;;4938292;29;20435;-80
2023/01/08 13:36:16;;;;;;;24.13;20.73;;;;;;;;;;5046540;28;20409;-80
2023/01/08 13:38:43;;;;;;;23.02;19.45;;;;;;;;;;5051118;28;20874;-82
2023/01/08 13:41:29;;;;;;;21.48;19.20;;;;;;;;;;5051071;28;20459;-79
2023/01/08 13:44:04;;;;;;;21.10;18.98;;;;;;;;;;5030578;28;20863;-82
2023/01/08 13:46:30;;;;;;;21.83;19.52;;;;;;;;;;5019069;28;20759;-81
2023/01/08 13:49:02;;;;;;;19.67;17.77;;;;;;;;;;5033257;28;20929;-81
2023/01/08 13:51:33;;;;;;;18.30;16.60;;;;;;;;;;5034025;28;20390;-84
2023/01/08 13:54:05;;;;;;;20.88;18.67;;;;;;;;;;5032389;28;20439;-84
2023/01/08 13:56:31;;;;;;;19.88;17.98;;;;;;;;;;5031745;28;20880;-83
2023/01/08 13:58:57;;;;;;;19.00;17.10;;;;;;;;;;5052714;28;20389;-83
2023/01/08 14:01:23;;;;;;;18.55;16.67;;;;;;;;;;5036897;28;20926;-84
2023/01/08 14:03:49;;;;;;;19.38;17.58;;;;;;;;;;5041753;28;20437;-83
2023/01/08 14:06:23;;;;;;;17.90;16.30;;;;;;;;;;5054513;28;20897;-84
2023/01/08 14:08:50;;;;;;;18.90;17.10;;;;;;;;;;5042215;28;20400;-85
2023/01/08 14:11:16;;;;;;;17.65;16.05;;;;;;;;;;5029353;28;20379;-84
2023/01/08 14:13:42;;;;;;;17.67;15.88;;;;;;;;;;5021836;28;20414;-84
2023/01/08 14:16:11;;;;;;;15.63;14.32;;;;;;;;;;5023440;28;20393;-84
2023/01/08 14:18:39;;;;;;;17.10;15.50;;;;;;;;;;5017958;28;20377;-84
2023/01/08 14:21:05;;;;;;;16.27;14.88;;;;;;;;;;5054291;28;20787;-86
2023/01/08 14:23:34;;;;;;;15.48;14.13;;;;;;;;;;5054379;28;20427;-87